Time;durP1;ratioP1;P1;durP2;ratioP2;P2;SDS_P1;SDS_P2;PMS_P1;PMS_P2;Temp;Humidity;BMP_temperature;BMP_pressure;BME280_temperature;BME280_humidity;BME280_pressure;Samples;Min_cycle;Max_cycle;Signal;HPM_P1;HPM_P2
2023/10/30 00:02:10;;;;;;;;;;;14.50;75.20;;;;;;5071342;28;20269;-72
2023/10/30 00:04:36;;;;;;;;;;;14.50;75.20;;;;;;5071685;28;19968;-73
2023/10/30 00:07:02;;;;;;;;;;;14.50;75.20;;;;;;5072731;28;20283;-72
2023/10/30 00:09:27;;;;;;;;;;;14.50;75.10;;;;;;5072728;28;19928;-72
2023/10/30 00:11:54;;;;;;;;;;;14.50;75.10;;;;;;5071539;28;19920;-72
2023/10/30 00:14:20;;;;;;;;;;;14.50;75.10;;;;;;5071283;28;19956;-72
2023/10/30 00:16:45;;;;;;;;;;;14.40;75.10;;;;;;5070925;28;19968;-71
2023/10/30 00:19:11;;;;;;;;;;;14.50;75.10;;;;;;5072644;28;19932;-72
2023/10/30 00:21:36;;;;;;;;;;;14.50;75.10;;;;;;5088242;28;19982;-72
2023/10/30 00:24:02;;;;;;;;;;;14.40;75.10;;;;;;5087992;28;19927;-72
2023/10/30 00:26:28;;;;;;;;;;;14.40;75.10;;;;;;5071527;28;20003;-72
2023/10/30 00:28:54;;;;;;;;;;;14.40;75.10;;;;;;5071568;28;20020;-72
2023/10/30 00:31:19;;;;;;;;;;;14.40;75.10;;;;;;5071159;28;20364;-72
2023/10/30 00:33:45;;;;;;;;;;;14.40;75.00;;;;;;5071302;28;19975;-72
2023/10/30 00:36:10;;;;;;;;;;;14.40;75.00;;;;;;5070698;28;19924;-71
2023/10/30 00:38:36;;;;;;;;;;;14.40;75.00;;;;;;5071013;28;19921;-72
2023/10/30 00:41:01;;;;;;;;;;;14.40;75.00;;;;;;5072313;28;19920;-72
2023/10/30 00:43:26;;;;;;;;;;;14.40;75.00;;;;;;5072337;28;20006;-72
2023/10/30 00:45:52;;;;;;;;;;;14.40;75.10;;;;;;5072254;28;20328;-72
2023/10/30 00:48:17;;;;;;;;;;;14.40;75.00;;;;;;5072076;28;19928;-72
2023/10/30 00:50:43;;;;;;;;;;;14.40;75.00;;;;;;5070868;28;20410;-72
2023/10/30 00:53:08;;;;;;;;;;;14.40;75.00;;;;;;5087564;28;19967;-72
2023/10/30 00:55:35;;;;;;;;;;;14.40;75.00;;;;;;5072046;28;20330;-72
2023/10/30 00:58:01;;;;;;;;;;;14.40;75.00;;;;;;5070726;28;19970;-72
2023/10/30 01:00:26;;;;;;;;;;;14.40;75.80;;;;;;5087633;28;19920;-72
2023/10/30 01:02:52;;;;;;;;;;;14.40;75.00;;;;;;5070703;28;19927;-72
2023/10/30 01:05:17;;;;;;;;;;;14.30;75.00;;;;;;5087521;28;20015;-72
2023/10/30 01:07:43;;;;;;;;;;;14.40;75.10;;;;;;5087789;28;20386;-72
2023/10/30 01:10:08;;;;;;;;;;;14.30;75.00;;;;;;5070731;28;19924;-72
2023/10/30 01:12:34;;;;;;;;;;;14.40;75.00;;;;;;5072040;28;19940;-72
2023/10/30 01:14:59;;;;;;;;;;;14.30;74.90;;;;;;5071167;28;19927;-72
2023/10/30 01:17:25;;;;;;;;;;;14.40;75.00;;;;;;5070342;28;19931;-73
2023/10/30 01:19:50;;;;;;;;;;;14.30;75.00;;;;;;5070526;28;19921;-73
2023/10/30 01:22:16;;;;;;;;;;;14.30;75.00;;;;;;5070529;28;19920;-72
2023/10/30 01:24:41;;;;;;;;;;;14.40;75.00;;;;;;5070816;28;19951;-72
2023/10/30 01:27:07;;;;;;;;;;;14.30;75.00;;;;;;5070854;28;19952;-72
2023/10/30 01:29:32;;;;;;;;;;;14.30;75.00;;;;;;5070378;28;19946;-72
2023/10/30 01:31:58;;;;;;;;;;;14.40;75.00;;;;;;5070762;28;19925;-72
2023/10/30 01:34:23;;;;;;;;;;;14.30;75.00;;;;;;5070418;28;19921;-72
2023/10/30 01:36:49;;;;;;;;;;;14.30;75.00;;;;;;5086628;28;19928;-72
2023/10/30 01:39:15;;;;;;;;;;;14.30;75.00;;;;;;5091798;28;19920;-72
2023/10/30 01:41:41;;;;;;;;;;;14.30;75.00;;;;;;5073726;28;19920;-72
2023/10/30 01:44:07;;;;;;;;;;;14.30;75.00;;;;;;5093701;28;19919;-72
2023/10/30 01:46:32;;;;;;;;;;;14.30;75.00;;;;;;5077635;28;19965;-72
2023/10/30 01:48:58;;;;;;;;;;;14.30;75.00;;;;;;5077444;28;20387;-72
2023/10/30 01:51:23;;;;;;;;;;;14.30;75.00;;;;;;5060722;28;20001;-72
2023/10/30 01:53:49;;;;;;;;;;;14.30;74.90;;;;;;5077046;28;19920;-72
2023/10/30 01:56:16;;;;;;;;;;;14.30;74.90;;;;;;5077000;28;19958;-72
2023/10/30 01:58:42;;;;;;;;;;;14.30;74.90;;;;;;5077285;28;19935;-73
2023/10/30 02:01:08;;;;;;;;;;;14.30;75.00;;;;;;5095550;28;20183;-72
2023/10/30 02:03:33;;;;;;;;;;;14.30;75.00;;;;;;5076956;28;19920;-72
2023/10/30 02:05:59;;;;;;;;;;;14.30;75.00;;;;;;5076926;28;19920;-72
2023/10/30 02:08:24;;;;;;;;;;;14.30;75.00;;;;;;5077201;28;19926;-72
2023/10/30 02:10:50;;;;;;;;;;;14.30;74.90;;;;;;5076845;28;19920;-72
2023/10/30 02:13:15;;;;;;;;;;;14.30;74.90;;;;;;5095313;28;19920;-72
2023/10/30 02:15:41;;;;;;;;;;;14.30;74.90;;;;;;5076672;28;19923;-72
2023/10/30 02:18:06;;;;;;;;;;;14.30;74.90;;;;;;5076762;28;20318;-72
2023/10/30 02:20:32;;;;;;;;;;;14.30;74.90;;;;;;5076990;28;19920;-73
2023/10/30 02:22:57;;;;;;;;;;;14.30;74.90;;;;;;5093780;28;20278;-72
2023/10/30 02:25:24;;;;;;;;;;;14.30;74.90;;;;;;5077077;28;20427;-72
2023/10/30 02:27:50;;;;;;;;;;;14.30;74.90;;;;;;5093907;28;19969;-72
2023/10/30 02:30:15;;;;;;;;;;;14.30;74.80;;;;;;5093288;28;19924;-73
2023/10/30 02:32:42;;;;;;;;;;;14.30;74.80;;;;;;5093290;28;19924;-74
2023/10/30 02:35:12;;;;;;;;;;;14.30;74.80;;;;;;5076031;28;20386;-72
2023/10/30 02:37:37;;;;;;;;;;;14.30;74.80;;;;;;5076254;28;19924;-72
2023/10/30 02:40:03;;;;;;;;;;;14.30;74.80;;;;;;5093383;28;20026;-72
2023/10/30 02:42:29;;;;;;;;;;;14.30;74.90;;;;;;5076233;28;20361;-72
2023/10/30 02:44:54;;;;;;;;;;;14.30;75.60;;;;;;5076488;28;19920;-72
2023/10/30 02:47:20;;;;;;;;;;;14.30;74.80;;;;;;5093292;28;19924;-72
2023/10/30 02:49:45;;;;;;;;;;;14.30;74.80;;;;;;5076160;28;19924;-72
2023/10/30 02:52:11;;;;;;;;;;;14.30;74.80;;;;;;5093072;28;19924;-72
2023/10/30 02:54:36;;;;;;;;;;;14.30;74.80;;;;;;5092873;28;20434;-72
2023/10/30 02:57:02;;;;;;;;;;;14.30;74.70;;;;;;5075803;28;19976;-73
2023/10/30 02:59:28;;;;;;;;;;;14.20;74.70;;;;;;5076343;28;20001;-72
2023/10/30 03:01:53;;;;;;;;;;;14.20;74.70;;;;;;5075848;28;20367;-72
2023/10/30 03:04:19;;;;;;;;;;;14.30;74.70;;;;;;5092690;28;19920;-72
2023/10/30 03:06:44;;;;;;;;;;;14.30;74.70;;;;;;5075718;28;19920;-72
2023/10/30 03:09:10;;;;;;;;;;;14.30;74.70;;;;;;5093861;28;19946;-72
2023/10/30 03:11:35;;;;;;;;;;;14.20;74.70;;;;;;5092529;28;20394;-72
2023/10/30 03:14:01;;;;;;;;;;;14.30;74.70;;;;;;5092894;28;19921;-72
2023/10/30 03:16:26;;;;;;;;;;;14.20;74.60;;;;;;5075458;28;19924;-72
2023/10/30 03:18:52;;;;;;;;;;;14.20;74.60;;;;;;5092724;28;19920;-72
2023/10/30 03:21:18;;;;;;;;;;;14.30;74.70;;;;;;5075454;28;19920;-72
2023/10/30 03:23:44;;;;;;;;;;;14.20;74.70;;;;;;5075733;28;19920;-72
2023/10/30 03:26:10;;;;;;;;;;;14.20;74.70;;;;;;5093617;28;20010;-72
2023/10/30 03:28:35;;;;;;;;;;;14.20;74.70;;;;;;5075337;28;20386;-73
2023/10/30 03:31:05;;;;;;;;;;;14.20;74.60;;;;;;5075298;28;19927;-72
2023/10/30 03:33:31;;;;;;;;;;;14.20;74.60;;;;;;5093451;28;20065;-73
2023/10/30 03:35:56;;;;;;;;;;;14.20;74.60;;;;;;5075061;28;20014;-72
2023/10/30 03:38:22;;;;;;;;;;;14.20;75.40;;;;;;5075373;28;19924;-73
2023/10/30 03:40:47;;;;;;;;;;;14.20;74.60;;;;;;5075018;28;19920;-72
2023/10/30 03:43:15;;;;;;;;;;;14.20;74.60;;;;;;5074963;28;19927;-72
2023/10/30 03:45:41;;;;;;;;;;;14.20;74.60;;;;;;5075373;28;19920;-73
2023/10/30 03:48:06;;;;;;;;;;;14.20;74.60;;;;;;5074978;28;19924;-72
2023/10/30 03:50:32;;;;;;;;;;;14.20;74.60;;;;;;5074981;28;19935;-72
2023/10/30 03:52:57;;;;;;;;;;;14.20;74.60;;;;;;5074816;28;19924;-72
2023/10/30 03:55:23;;;;;;;;;;;14.20;74.60;;;;;;5093005;28;19920;-72
2023/10/30 03:57:48;;;;;;;;;;;14.20;74.60;;;;;;5074725;28;19928;-72
2023/10/30 04:00:14;;;;;;;;;;;14.20;74.60;;;;;;5074893;28;20353;-72
2023/10/30 04:02:39;;;;;;;;;;;14.20;74.60;;;;;;5074905;28;19966;-72
2023/10/30 04:05:06;;;;;;;;;;;14.20;74.60;;;;;;5075050;28;19926;-72
2023/10/30 04:07:31;;;;;;;;;;;14.20;74.60;;;;;;5092482;28;19920;-72
2023/10/30 04:09:57;;;;;;;;;;;14.20;74.60;;;;;;5074892;28;19989;-72
2023/10/30 04:12:22;;;;;;;;;;;14.20;74.60;;;;;;5074665;28;19967;-72
2023/10/30 04:14:48;;;;;;;;;;;14.20;74.60;;;;;;5074849;28;19974;-72
2023/10/30 04:17:13;;;;;;;;;;;14.20;74.60;;;;;;5092648;28;19924;-72
2023/10/30 04:19:39;;;;;;;;;;;14.20;74.60;;;;;;5092717;28;20271;-73
2023/10/30 04:22:04;;;;;;;;;;;14.20;74.60;;;;;;5091723;28;19924;-72
2023/10/30 04:24:31;;;;;;;;;;;14.20;74.60;;;;;;5074437;28;20310;-72
2023/10/30 04:26:56;;;;;;;;;;;14.20;74.50;;;;;;5074470;28;19920;-71
2023/10/30 04:29:26;;;;;;;;;;;14.20;74.60;;;;;;5092617;28;19928;-72
2023/10/30 04:31:51;;;;;;;;;;;14.20;74.50;;;;;;5074507;28;20014;-73
2023/10/30 04:34:18;;;;;;;;;;;14.20;74.60;;;;;;5074347;28;20016;-73
2023/10/30 04:36:44;;;;;;;;;;;14.20;74.60;;;;;;5074086;28;19924;-73
2023/10/30 04:39:10;;;;;;;;;;;14.20;74.60;;;;;;5074593;28;19974;-72
2023/10/30 04:41:36;;;;;;;;;;;14.20;74.60;;;;;;5074535;28;19985;-72
2023/10/30 04:44:02;;;;;;;;;;;14.20;74.60;;;;;;5092673;28;19919;-72
2023/10/30 04:46:28;;;;;;;;;;;14.10;74.60;;;;;;5074585;28;19924;-72
2023/10/30 04:48:53;;;;;;;;;;;14.10;74.50;;;;;;5092425;28;20375;-72
2023/10/30 04:51:19;;;;;;;;;;;14.20;74.60;;;;;;5092287;28;19927;-72
2023/10/30 04:53:44;;;;;;;;;;;14.10;74.50;;;;;;5092321;28;19927;-72
2023/10/30 04:56:10;;;;;;;;;;;14.20;74.60;;;;;;5092156;28;20392;-73
2023/10/30 04:58:35;;;;;;;;;;;14.10;74.50;;;;;;5074204;28;19920;-72
2023/10/30 05:01:05;;;;;;;;;;;14.10;74.50;;;;;;5090981;28;19965;-72
2023/10/30 05:03:31;;;;;;;;;;;14.10;74.50;;;;;;5092267;28;19920;-72
2023/10/30 05:06:00;;;;;;;;;;;14.20;74.60;;;;;;5073960;28;20204;-72
2023/10/30 05:08:26;;;;;;;;;;;14.10;74.50;;;;;;5091153;28;19920;-72
2023/10/30 05:10:51;;;;;;;;;;;14.20;74.60;;;;;;5074215;28;20025;-72
2023/10/30 05:13:17;;;;;;;;;;;14.10;74.50;;;;;;5074088;28;19974;-72
2023/10/30 05:15:42;;;;;;;;;;;14.20;74.60;;;;;;5090992;28;19979;-72
2023/10/30 05:18:08;;;;;;;;;;;14.10;74.50;;;;;;5092636;28;20227;-72
2023/10/30 05:20:33;;;;;;;;;;;14.10;74.50;;;;;;5077811;28;19959;-73
2023/10/30 05:22:59;;;;;;;;;;;14.10;74.50;;;;;;5078134;28;19926;-72
2023/10/30 05:25:25;;;;;;;;;;;14.10;74.50;;;;;;5077643;28;20372;-72
2023/10/30 05:27:51;;;;;;;;;;;14.10;74.50;;;;;;5077969;28;19963;-72
2023/10/30 05:30:16;;;;;;;;;;;14.10;74.50;;;;;;5077655;28;20316;-73
2023/10/30 05:32:42;;;;;;;;;;;14.10;74.50;;;;;;5077865;28;19969;-73
2023/10/30 05:35:08;;;;;;;;;;;14.10;74.50;;;;;;5077628;28;20288;-72
2023/10/30 05:37:33;;;;;;;;;;;14.10;74.50;;;;;;5077436;28;20375;-72
2023/10/30 05:39:59;;;;;;;;;;;14.10;74.50;;;;;;5077476;28;19921;-72
2023/10/30 05:42:25;;;;;;;;;;;14.10;74.50;;;;;;5095497;28;19927;-72
2023/10/30 05:44:51;;;;;;;;;;;14.10;74.50;;;;;;5077382;28;19920;-72
2023/10/30 05:47:16;;;;;;;;;;;14.10;74.50;;;;;;5077347;28;19920;-72
2023/10/30 05:49:42;;;;;;;;;;;14.10;74.50;;;;;;5095502;28;19927;-72
2023/10/30 05:52:09;;;;;;;;;;;14.10;74.50;;;;;;5077462;28;19924;-72
2023/10/30 05:54:35;;;;;;;;;;;14.10;74.50;;;;;;5077307;28;19920;-73
2023/10/30 05:57:00;;;;;;;;;;;14.10;74.50;;;;;;5076949;28;20151;-72
2023/10/30 05:59:26;;;;;;;;;;;14.10;74.50;;;;;;5077464;28;19927;-72
2023/10/30 06:01:52;;;;;;;;;;;14.10;74.50;;;;;;5076997;28;20287;-72
2023/10/30 06:04:17;;;;;;;;;;;14.10;74.40;;;;;;5077330;28;19993;-72
2023/10/30 06:06:43;;;;;;;;;;;14.10;74.50;;;;;;5077138;28;20280;-72
2023/10/30 06:09:08;;;;;;;;;;;14.10;74.50;;;;;;5076940;28;20363;-72
2023/10/30 06:11:34;;;;;;;;;;;14.10;74.50;;;;;;5077248;28;19986;-72
2023/10/30 06:13:59;;;;;;;;;;;14.10;74.40;;;;;;5094855;28;19927;-72
2023/10/30 06:16:25;;;;;;;;;;;14.10;74.40;;;;;;5076981;28;19931;-72
2023/10/30 06:18:50;;;;;;;;;;;14.10;74.40;;;;;;5094877;28;19936;-72
2023/10/30 06:21:16;;;;;;;;;;;14.10;74.40;;;;;;5094984;28;19924;-73
2023/10/30 06:23:42;;;;;;;;;;;14.10;74.40;;;;;;5076646;28;19920;-72
2023/10/30 06:26:09;;;;;;;;;;;14.10;74.40;;;;;;5076625;28;20365;-72
2023/10/30 06:28:35;;;;;;;;;;;14.10;74.40;;;;;;5094494;28;20025;-72
2023/10/30 06:31:02;;;;;;;;;;;14.10;74.40;;;;;;5075469;28;20386;-73
2023/10/30 06:33:27;;;;;;;;;;;14.10;74.40;;;;;;5076168;28;19920;-74
2023/10/30 06:35:56;;;;;;;;;;;14.10;74.40;;;;;;5094194;28;19924;-74
2023/10/30 06:38:22;;;;;;;;;;;14.10;74.40;;;;;;5076743;28;19931;-75
2023/10/30 06:40:48;;;;;;;;;;;14.10;74.30;;;;;;5087403;28;19920;-74
2023/10/30 06:43:13;;;;;;;;;;;14.20;74.30;;;;;;5077878;28;19920;-75
2023/10/30 06:45:39;;;;;;;;;;;14.20;74.30;;;;;;5082421;28;19964;-74
2023/10/30 06:48:04;;;;;;;;;;;14.20;74.20;;;;;;5075278;28;20431;-75
2023/10/30 06:50:30;;;;;;;;;;;14.20;74.10;;;;;;5091611;28;19939;-75
2023/10/30 06:52:55;;;;;;;;;;;14.30;74.10;;;;;;5090683;28;19934;-79
2023/10/30 06:55:21;;;;;;;;;;;14.50;74.20;;;;;;5071124;28;19920;-78
2023/10/30 06:57:46;;;;;;;;;;;15.00;73.30;;;;;;5091802;28;19946;-80
2023/10/30 07:00:12;;;;;;;;;;;15.40;72.00;;;;;;5071637;28;20031;-74
2023/10/30 07:02:40;;;;;;;;;;;15.90;70.60;;;;;;5088825;28;20137;-80
2023/10/30 07:05:06;;;;;;;;;;;16.40;68.90;;;;;;5071453;28;19927;-81
2023/10/30 07:07:32;;;;;;;;;;;17.00;67.10;;;;;;5088809;28;19920;-74
2023/10/30 07:09:57;;;;;;;;;;;17.60;65.50;;;;;;5089919;28;19974;-74
2023/10/30 07:12:23;;;;;;;;;;;18.20;63.80;;;;;;5085780;28;20040;-74
2023/10/30 07:14:48;;;;;;;;;;;18.90;62.00;;;;;;5069547;28;19928;-73
2023/10/30 07:17:14;;;;;;;;;;;19.60;60.10;;;;;;5072625;28;19962;-73
2023/10/30 07:19:39;;;;;;;;;;;20.40;58.00;;;;;;5071292;28;19958;-74
2023/10/30 07:22:05;;;;;;;;;;;21.20;56.20;;;;;;5077658;28;19927;-74
2023/10/30 07:24:30;;;;;;;;;;;21.90;54.50;;;;;;5081103;28;19934;-73
2023/10/30 07:26:57;;;;;;;;;;;22.50;53.00;;;;;;5087747;28;19927;-74
2023/10/30 07:29:23;;;;;;;;;;;23.00;51.80;;;;;;5072057;28;19958;-73
2023/10/30 07:31:49;;;;;;;;;;;23.50;50.20;;;;;;5056901;28;19928;-80
2023/10/30 07:34:14;;;;;;;;;;;23.90;49.30;;;;;;5075090;28;20245;-74
2023/10/30 07:36:41;;;;;;;;;;;24.00;48.70;;;;;;5059052;28;20311;-79
2023/10/30 07:39:07;;;;;;;;;;;24.10;48.40;;;;;;5044049;28;19920;-79
2023/10/30 07:41:33;;;;;;;;;;;24.00;48.20;;;;;;5055719;28;20403;-78
2023/10/30 07:43:59;;;;;;;;;;;24.10;48.20;;;;;;5057504;28;20007;-78
2023/10/30 07:46:25;;;;;;;;;;;24.00;48.30;;;;;;5055650;28;19928;-80
2023/10/30 07:48:50;;;;;;;;;;;24.00;48.30;;;;;;5075939;28;19930;-80
2023/10/30 07:51:16;;;;;;;;;;;24.00;48.40;;;;;;5076604;28;19971;-73
2023/10/30 07:53:42;;;;;;;;;;;23.90;48.40;;;;;;5076603;28;19932;-81
2023/10/30 07:56:08;;;;;;;;;;;23.80;48.80;;;;;;5051706;28;20269;-74
2023/10/30 07:58:33;;;;;;;;;;;23.60;49.10;;;;;;5054457;28;19935;-72
2023/10/30 08:00:59;;;;;;;;;;;23.40;49.50;;;;;;5039730;28;20332;-70
2023/10/30 08:03:24;;;;;;;;;;;23.20;50.00;;;;;;5073247;28;19924;-77
2023/10/30 08:05:50;;;;;;;;;;;23.20;50.60;;;;;;5052644;28;19970;-71
2023/10/30 08:08:17;;;;;;;;;;;23.00;50.80;;;;;;5072192;28;20082;-74
2023/10/30 08:10:45;;;;;;;;;;;22.90;51.20;;;;;;5066674;28;19928;-72
2023/10/30 08:13:11;;;;;;;;;;;22.60;51.70;;;;;;5054920;28;19967;-73
2023/10/30 08:15:36;;;;;;;;;;;22.50;52.10;;;;;;5054643;28;19924;-71
2023/10/30 08:18:02;;;;;;;;;;;22.30;52.50;;;;;;5052853;28;20256;-77
2023/10/30 08:20:28;;;;;;;;;;;22.20;53.10;;;;;;5060911;28;20180;-75
2023/10/30 08:22:54;;;;;;;;;;;22.00;53.50;;;;;;5057519;28;19924;-70
2023/10/30 08:25:19;;;;;;;;;;;21.80;54.00;;;;;;5072321;28;19978;-70
2023/10/30 08:27:45;;;;;;;;;;;21.60;54.40;;;;;;5078273;28;19924;-70
2023/10/30 08:30:11;;;;;;;;;;;21.40;55.00;;;;;;5054012;28;19942;-75
2023/10/30 08:32:39;;;;;;;;;;;21.10;55.40;;;;;;5058074;28;19924;-76
2023/10/30 08:35:05;;;;;;;;;;;20.90;56.00;;;;;;5074483;28;20439;-70
2023/10/30 08:37:30;;;;;;;;;;;20.70;56.50;;;;;;5074315;28;20019;-79
2023/10/30 08:39:56;;;;;;;;;;;20.50;57.00;;;;;;5057172;28;19960;-77
2023/10/30 08:42:21;;;;;;;;;;;20.40;57.40;;;;;;5073233;28;20268;-71
2023/10/30 08:44:47;;;;;;;;;;;20.50;57.40;;;;;;5078220;28;19942;-71
2023/10/30 08:47:14;;;;;;;;;;;20.70;57.30;;;;;;5076755;28;19967;-71
2023/10/30 08:49:40;;;;;;;;;;;20.90;56.80;;;;;;5072964;28;19971;-78
2023/10/30 08:52:05;;;;;;;;;;;21.20;56.10;;;;;;5069086;28;19956;-78
2023/10/30 08:54:31;;;;;;;;;;;21.50;55.30;;;;;;5062001;28;20261;-75
2023/10/30 08:56:57;;;;;;;;;;;21.70;54.80;;;;;;5063610;28;19931;-70
2023/10/30 08:59:24;;;;;;;;;;;21.90;54.50;;;;;;5080536;28;20397;-73
2023/10/30 09:01:49;;;;;;;;;;;22.20;53.90;;;;;;5060352;28;19920;-70
2023/10/30 09:04:15;;;;;;;;;;;22.50;53.30;;;;;;5069089;28;20402;-77
2023/10/30 09:06:42;;;;;;;;;;;22.80;52.60;;;;;;5081458;28;19921;-71
2023/10/30 09:09:08;;;;;;;;;;;23.00;52.10;;;;;;5066193;28;20023;-71
2023/10/30 09:11:33;;;;;;;;;;;23.30;51.70;;;;;;5070652;28;19999;-71
2023/10/30 09:13:59;;;;;;;;;;;23.30;51.40;;;;;;5079211;28;19920;-70
2023/10/30 09:16:25;;;;;;;;;;;23.30;51.40;;;;;;5059139;28;20326;-71
2023/10/30 09:18:52;;;;;;;;;;;23.30;51.30;;;;;;5076200;28;19969;-68
2023/10/30 09:21:18;;;;;;;;;;;23.30;51.30;;;;;;5061701;28;20023;-79
2023/10/30 09:23:43;;;;;;;;;;;23.20;51.20;;;;;;5078176;28;20003;-77
2023/10/30 09:26:10;;;;;;;;;;;23.10;51.40;;;;;;5072626;28;20362;-65
2023/10/30 09:28:36;;;;;;;;;;;22.80;51.70;;;;;;5075041;28;19928;-71
2023/10/30 09:31:02;;;;;;;;;;;22.60;52.40;;;;;;5059522;28;20375;-77
2023/10/30 09:33:27;;;;;;;;;;;22.50;53.00;;;;;;5078672;28;19920;-76
2023/10/30 09:35:53;;;;;;;;;;;22.60;53.10;;;;;;5076122;28;20299;-73
2023/10/30 09:38:18;;;;;;;;;;;22.60;53.00;;;;;;5061805;28;20415;-71
2023/10/30 09:40:46;;;;;;;;;;;22.50;53.20;;;;;;5057218;28;19924;-70
2023/10/30 09:43:11;;;;;;;;;;;22.50;53.30;;;;;;5060347;28;20007;-70
2023/10/30 09:45:38;;;;;;;;;;;22.50;53.40;;;;;;5057904;28;20023;-71
2023/10/30 09:48:05;;;;;;;;;;;22.40;53.20;;;;;;5057183;28;19924;-69
2023/10/30 09:50:30;;;;;;;;;;;22.40;53.50;;;;;;5055301;28;19946;-75
2023/10/30 09:52:57;;;;;;;;;;;22.30;53.60;;;;;;5054751;28;20387;-74
2023/10/30 09:55:23;;;;;;;;;;;22.10;54.00;;;;;;5056664;28;19955;-72
2023/10/30 09:57:51;;;;;;;;;;;21.90;54.50;;;;;;5067627;28;19929;-71
2023/10/30 10:00:17;;;;;;;;;;;21.90;54.90;;;;;;5058416;28;19939;-71
2023/10/30 10:02:43;;;;;;;;;;;21.80;55.10;;;;;;5061452;28;19946;-71
2023/10/30 10:05:09;;;;;;;;;;;21.70;55.30;;;;;;5071972;28;20065;-71
2023/10/30 10:07:35;;;;;;;;;;;21.60;55.50;;;;;;5081203;28;19924;-72
2023/10/30 10:10:02;;;;;;;;;;;21.50;55.80;;;;;;5072648;28;20638;-71
2023/10/30 10:12:29;;;;;;;;;;;21.40;56.00;;;;;;5075837;28;19953;-74
2023/10/30 10:14:55;;;;;;;;;;;21.30;56.30;;;;;;5056361;28;20393;-74
2023/10/30 10:17:21;;;;;;;;;;;21.10;56.60;;;;;;5074192;28;19985;-72
2023/10/30 10:19:46;;;;;;;;;;;20.90;57.10;;;;;;5057692;28;20571;-72
2023/10/30 10:22:28;;;;;;;;;;;20.80;57.70;;;;;;5075686;28;19931;-71
2023/10/30 10:24:53;;;;;;;;;;;20.50;58.20;;;;;;5056869;28;20273;-75
2023/10/30 10:27:19;;;;;;;;;;;20.40;58.80;;;;;;5056593;28;20640;-74
2023/10/30 10:29:51;;;;;;;;;;;20.30;59.10;;;;;;5061476;28;19920;-80
2023/10/30 10:32:16;;;;;;;;;;;20.20;59.30;;;;;;5063979;28;20436;-80
2023/10/30 10:34:42;;;;;;;;;;;20.10;59.60;;;;;;5076145;28;19930;-79
2023/10/30 10:37:15;;;;;;;;;;;20.00;59.80;;;;;;5056864;28;19928;-77
2023/10/30 10:39:49;;;;;;;;;;;19.80;60.10;;;;;;5056037;28;19928;-77
2023/10/30 10:42:19;;;;;;;;;;;19.70;60.50;;;;;;5074729;28;19920;-69
2023/10/30 10:44:45;;;;;;;;;;;19.60;60.80;;;;;;5061156;28;20006;-77
2023/10/30 10:47:11;;;;;;;;;;;19.40;61.20;;;;;;5072341;28;19932;-76
2023/10/30 10:49:37;;;;;;;;;;;19.30;61.60;;;;;;5056036;28;20402;-74
2023/10/30 10:52:05;;;;;;;;;;;19.50;61.80;;;;;;5059193;28;20358;-78
2023/10/30 10:54:35;;;;;;;;;;;19.60;61.60;;;;;;5067612;28;19931;-71
2023/10/30 10:57:01;;;;;;;;;;;20.00;61.00;;;;;;5076269;28;19928;-71
2023/10/30 10:59:30;;;;;;;;;;;20.30;60.20;;;;;;5059304;28;19981;-74
2023/10/30 11:01:56;;;;;;;;;;;20.70;59.30;;;;;;5058122;28;19921;-73
2023/10/30 11:04:23;;;;;;;;;;;21.10;58.40;;;;;;5060038;28;19920;-73
2023/10/30 11:06:52;;;;;;;;;;;21.50;57.50;;;;;;5070469;28;20018;-74
2023/10/30 11:09:21;;;;;;;;;;;21.80;56.60;;;;;;5062507;28;19973;-75
2023/10/30 11:11:54;;;;;;;;;;;22.20;55.80;;;;;;5078390;28;19947;-72
2023/10/30 11:14:26;;;;;;;;;;;22.50;54.90;;;;;;5070583;28;19947;-76
2023/10/30 11:16:55;;;;;;;;;;;22.50;54.30;;;;;;5058952;28;19932;-71
2023/10/30 11:19:21;;;;;;;;;;;22.50;54.10;;;;;;5057906;28;19923;-77
2023/10/30 11:21:48;;;;;;;;;;;22.50;54.10;;;;;;5073613;28;20432;-71
2023/10/30 11:24:33;;;;;;;;;;;22.50;54.20;;;;;;5076410;28;19974;-71
2023/10/30 11:26:59;;;;;;;;;;;22.50;54.10;;;;;;5075792;28;19928;-73
2023/10/30 11:29:44;;;;;;;;;;;22.40;54.10;;;;;;5057575;28;19928;-71
2023/10/30 11:32:12;;;;;;;;;;;22.30;54.50;;;;;;5061822;28;19931;-76
2023/10/30 11:34:38;;;;;;;;;;;22.30;54.70;;;;;;5075160;28;19924;-71
2023/10/30 11:39:45;;;;;;;;;;;22.30;54.80;;;;;;5094688;27;20282;-71
2023/10/30 11:42:26;;;;;;;;;;;22.20;55.00;;;;;;5093446;28;19928;-71
2023/10/30 11:44:52;;;;;;;;;;;22.20;54.90;;;;;;5088348;28;19931;-72
2023/10/30 11:47:18;;;;;;;;;;;22.30;55.10;;;;;;5085834;28;20016;-75
2023/10/30 11:49:45;;;;;;;;;;;22.40;55.00;;;;;;5118611;27;21506;-71
2023/10/30 11:52:11;;;;;;;;;;;22.30;55.10;;;;;;5085143;28;20311;-71
2023/10/30 11:54:39;;;;;;;;;;;22.20;55.40;;;;;;5088721;28;19973;-72
2023/10/30 11:57:05;;;;;;;;;;;22.10;55.80;;;;;;5089027;28;19960;-73
2023/10/30 11:59:32;;;;;;;;;;;21.90;55.90;;;;;;5091849;28;19976;-72
2023/10/30 12:01:58;;;;;;;;;;;21.80;56.30;;;;;;5119289;27;19947;-74
2023/10/30 12:04:24;;;;;;;;;;;21.70;56.50;;;;;;5082911;28;19924;-74
2023/10/30 12:06:50;;;;;;;;;;;21.70;57.00;;;;;;5087430;28;20594;-77
2023/10/30 12:09:16;;;;;;;;;;;21.60;57.10;;;;;;5083107;28;19927;-75
2023/10/30 12:11:42;;;;;;;;;;;21.50;57.30;;;;;;5085269;28;20437;-74
2023/10/30 12:14:07;;;;;;;;;;;21.50;57.60;;;;;;5085994;28;20347;-73
2023/10/30 12:16:34;;;;;;;;;;;21.40;57.70;;;;;;5089651;28;20926;-73
2023/10/30 12:19:00;;;;;;;;;;;21.30;57.80;;;;;;5085875;28;19935;-73
2023/10/30 12:21:26;;;;;;;;;;;21.10;58.00;;;;;;5095264;28;19928;-73
2023/10/30 12:23:52;;;;;;;;;;;20.90;58.30;;;;;;5088825;28;20557;-73
2023/10/30 12:26:17;;;;;;;;;;;20.70;58.60;;;;;;5096866;28;20345;-76
2023/10/30 12:28:43;;;;;;;;;;;20.60;59.20;;;;;;5100173;28;19927;-78
2023/10/30 12:31:25;;;;;;;;;;;20.40;59.70;;;;;;5091980;28;19920;-77
2023/10/30 12:34:11;;;;;;;;;;;20.20;60.00;;;;;;5096066;28;20702;-78
2023/10/30 12:36:37;;;;;;;;;;;20.10;60.30;;;;;;5121105;27;19920;-76
2023/10/30 12:39:19;;;;;;;;;;;19.80;60.70;;;;;;5092909;28;20417;-82
2023/10/30 12:41:44;;;;;;;;;;;19.70;61.10;;;;;;5097098;28;19924;-77
2023/10/30 12:44:10;;;;;;;;;;;19.60;61.40;;;;;;5089813;28;19981;-77
2023/10/30 12:46:36;;;;;;;;;;;19.50;61.70;;;;;;5091058;28;19956;-76
2023/10/30 12:49:02;;;;;;;;;;;19.40;61.90;;;;;;5094188;28;20166;-76
2023/10/30 12:51:27;;;;;;;;;;;19.40;62.20;;;;;;5079618;28;19920;-78
2023/10/30 12:53:53;;;;;;;;;;;19.30;62.50;;;;;;5079044;28;20325;-79
2023/10/30 12:56:19;;;;;;;;;;;19.10;62.70;;;;;;5104254;27;19924;-73
2023/10/30 12:58:44;;;;;;;;;;;19.10;63.00;;;;;;5070550;28;20364;-74
2023/10/30 13:01:10;;;;;;;;;;;19.10;63.20;;;;;;5071035;28;19933;-76
2023/10/30 13:03:36;;;;;;;;;;;19.10;63.30;;;;;;5072884;28;19947;-73
2023/10/30 13:06:01;;;;;;;;;;;19.20;63.40;;;;;;5073290;28;20379;-75
2023/10/30 13:08:27;;;;;;;;;;;19.10;63.40;;;;;;5075119;28;19985;-75
2023/10/30 13:10:52;;;;;;;;;;;19.20;63.60;;;;;;5079315;28;20294;-75
2023/10/30 13:13:18;;;;;;;;;;;19.20;63.50;;;;;;5074021;28;19925;-75
2023/10/30 13:15:45;;;;;;;;;;;19.20;63.60;;;;;;5072254;28;19920;-77
2023/10/30 13:18:11;;;;;;;;;;;19.20;63.60;;;;;;5068652;28;20288;-77
2023/10/30 13:20:37;;;;;;;;;;;19.20;63.80;;;;;;5072962;28;19920;-73
2023/10/30 13:23:03;;;;;;;;;;;19.20;63.90;;;;;;5078033;28;19924;-76
2023/10/30 13:25:29;;;;;;;;;;;19.20;63.90;;;;;;5075475;28;19928;-76
2023/10/30 13:27:54;;;;;;;;;;;19.20;64.00;;;;;;5075546;28;19931;-73
2023/10/30 13:30:21;;;;;;;;;;;19.10;64.00;;;;;;5075347;28;20073;-75
2023/10/30 13:32:46;;;;;;;;;;;19.10;64.20;;;;;;5074763;28;19967;-77
2023/10/30 13:35:12;;;;;;;;;;;19.00;64.40;;;;;;5076023;28;19993;-75
2023/10/30 13:37:37;;;;;;;;;;;18.90;64.60;;;;;;5070105;28;19929;-73
2023/10/30 13:40:03;;;;;;;;;;;18.90;64.60;;;;;;5068872;28;19951;-73
2023/10/30 13:42:29;;;;;;;;;;;18.90;64.80;;;;;;5072449;28;20185;-69
2023/10/30 13:44:54;;;;;;;;;;;18.90;64.90;;;;;;5070725;28;20037;-73
2023/10/30 13:47:20;;;;;;;;;;;18.90;65.00;;;;;;5082099;28;19992;-72
2023/10/30 13:49:46;;;;;;;;;;;18.90;65.10;;;;;;5107451;27;20019;-71
2023/10/30 13:52:13;;;;;;;;;;;18.80;65.20;;;;;;5056970;28;19935;-73
2023/10/30 13:54:38;;;;;;;;;;;18.90;65.30;;;;;;5071325;28;19924;-73
2023/10/30 13:57:04;;;;;;;;;;;18.90;65.30;;;;;;5073283;28;19972;-72
2023/10/30 13:59:29;;;;;;;;;;;18.90;65.30;;;;;;5069278;28;19963;-69
2023/10/30 14:01:55;;;;;;;;;;;18.90;65.50;;;;;;5073641;28;20673;-68
2023/10/30 14:04:21;;;;;;;;;;;18.90;65.60;;;;;;5085650;28;20798;-70
2023/10/30 14:06:46;;;;;;;;;;;18.90;65.70;;;;;;5081365;28;19924;-71
2023/10/30 14:09:13;;;;;;;;;;;18.90;65.80;;;;;;5080663;28;19924;-74
2023/10/30 14:11:38;;;;;;;;;;;18.90;65.80;;;;;;5084917;28;20068;-73
2023/10/30 14:14:04;;;;;;;;;;;18.90;66.00;;;;;;5121878;27;19920;-73